sensor_id;sensor_type;location;lat;lon;timestamp;pressure;altitude;pressure_sealevel;temperature;humidity
37206;BME280;23099;42.636;23.198;2023-05-21T00:02:03;91882.03;;;12.21;100.00
37206;BME280;23099;42.636;23.198;2023-05-21T00:04:30;91887.06;;;12.29;100.00
37206;BME280;23099;42.636;23.198;2023-05-21T00:06:58;91896.63;;;12.30;100.00
37206;BME280;23099;42.636;23.198;2023-05-21T00:09:25;91890.88;;;12.28;100.00
37206;BME280;23099;42.636;23.198;2023-05-21T00:11:53;91884.75;;;12.28;100.00
37206;BME280;23099;42.636;23.198;2023-05-21T00:14:20;91884.75;;;12.28;100.00
37206;BME280;23099;42.636;23.198;2023-05-21T00:16:46;91883.59;;;12.25;100.00
37206;BME280;23099;42.636;23.198;2023-05-21T00:19:13;91884.34;;;12.22;100.00
37206;BME280;23099;42.636;23.198;2023-05-21T00:21:40;91872.84;;;12.22;100.00
37206;BME280;23099;42.636;23.198;2023-05-21T00:24:07;91878.63;;;12.24;100.00
37206;BME280;23099;42.636;23.198;2023-05-21T00:26:33;91872.88;;;12.25;100.00
37206;BME280;23099;42.636;23.198;2023-05-21T00:29:01;91875.16;;;12.23;100.00
37206;BME280;23099;42.636;23.198;2023-05-21T00:31:28;91877.03;;;12.19;100.00
37206;BME280;23099;42.636;23.198;2023-05-21T00:33:56;91870.88;;;12.12;100.00
37206;BME280;23099;42.636;23.198;2023-05-21T00:36:23;91870.09;;;12.11;100.00
37206;BME280;23099;42.636;23.198;2023-05-21T00:38:50;91867.03;;;12.09;100.00
37206;BME280;23099;42.636;23.198;2023-05-21T00:41:17;91865.50;;;12.08;100.00
37206;BME280;23099;42.636;23.198;2023-05-21T00:43:44;91852.00;;;11.94;100.00
37206;BME280;23099;42.636;23.198;2023-05-21T00:46:14;91860.06;;;12.01;100.00
37206;BME280;23099;42.636;23.198;2023-05-21T00:48:43;91857.69;;;11.89;100.00
37206;BME280;23099;42.636;23.198;2023-05-21T00:51:10;91856.91;;;11.88;100.00
37206;BME280;23099;42.636;23.198;2023-05-21T00:53:38;91865.31;;;11.87;100.00
37206;BME280;23099;42.636;23.198;2023-05-21T00:56:05;91860.34;;;11.85;100.00
37206;BME280;23099;42.636;23.198;2023-05-21T00:58:32;91859.19;;;11.83;100.00
37206;BME280;23099;42.636;23.198;2023-05-21T01:01:00;91845.03;;;11.82;100.00
37206;BME280;23099;42.636;23.198;2023-05-21T01:03:29;91853.69;;;11.72;100.00
37206;BME280;23099;42.636;23.198;2023-05-21T01:06:03;91849.94;;;11.77;100.00
37206;BME280;23099;42.636;23.198;2023-05-21T01:08:30;91839.50;;;11.64;100.00
37206;BME280;23099;42.636;23.198;2023-05-21T01:11:00;91848.63;;;11.60;100.00
37206;BME280;23099;42.636;23.198;2023-05-21T01:13:28;91841.31;;;11.53;100.00
37206;BME280;23099;42.636;23.198;2023-05-21T01:15:55;91835.91;;;11.46;100.00
37206;BME280;23099;42.636;23.198;2023-05-21T01:18:23;91838.94;;;11.45;100.00
37206;BME280;23099;42.636;23.198;2023-05-21T01:20:51;91829.41;;;11.47;100.00
37206;BME280;23099;42.636;23.198;2023-05-21T01:23:21;91845.06;;;11.45;100.00
37206;BME280;23099;42.636;23.198;2023-05-21T01:25:47;91840.81;;;11.41;100.00
37206;BME280;23099;42.636;23.198;2023-05-21T01:28:14;91838.13;;;11.37;100.00
37206;BME280;23099;42.636;23.198;2023-05-21T01:30:42;91826.66;;;11.40;100.00
37206;BME280;23099;42.636;23.198;2023-05-21T01:33:14;91833.91;;;11.36;100.00
37206;BME280;23099;42.636;23.198;2023-05-21T01:35:46;91832.00;;;11.37;100.00
37206;BME280;23099;42.636;23.198;2023-05-21T01:38:18;91839.22;;;11.32;100.00
37206;BME280;23099;42.636;23.198;2023-05-21T01:40:50;91818.13;;;11.27;100.00
37206;BME280;23099;42.636;23.198;2023-05-21T01:43:19;91821.50;;;11.17;100.00
37206;BME280;23099;42.636;23.198;2023-05-21T01:45:46;91819.63;;;11.21;100.00
37206;BME280;23099;42.636;23.198;2023-05-21T01:48:13;91819.63;;;11.21;100.00
37206;BME280;23099;42.636;23.198;2023-05-21T01:50:42;91810.88;;;11.24;100.00
37206;BME280;23099;42.636;23.198;2023-05-21T01:53:09;91813.91;;;11.23;100.00
37206;BME280;23099;42.636;23.198;2023-05-21T01:55:36;91814.69;;;11.23;100.00
37206;BME280;23099;42.636;23.198;2023-05-21T01:58:07;91813.53;;;11.24;100.00
37206;BME280;23099;42.636;23.198;2023-05-21T02:00:34;91818.91;;;11.28;100.00
37206;BME280;23099;42.636;23.198;2023-05-21T02:03:01;91806.28;;;11.28;100.00
37206;BME280;23099;42.636;23.198;2023-05-21T02:05:28;91811.56;;;11.18;100.00
37206;BME280;23099;42.636;23.198;2023-05-21T02:07:55;91804.22;;;11.11;100.00
37206;BME280;23099;42.636;23.198;2023-05-21T02:10:24;91803.13;;;11.16;100.00
37206;BME280;23099;42.636;23.198;2023-05-21T02:12:51;91801.94;;;11.10;100.00
37206;BME280;23099;42.636;23.198;2023-05-21T02:15:19;91803.09;;;11.12;100.00
37206;BME280;23099;42.636;23.198;2023-05-21T02:17:46;91809.56;;;11.11;100.00
37206;BME280;23099;42.636;23.198;2023-05-21T02:20:15;91802.72;;;11.10;100.00
37206;BME280;23099;42.636;23.198;2023-05-21T02:22:44;91816.72;;;11.00;100.00
37206;BME280;23099;42.636;23.198;2023-05-21T02:25:13;91810.66;;;11.03;100.00
37206;BME280;23099;42.636;23.198;2023-05-21T02:27:41;91811.00;;;11.02;100.00
37206;BME280;23099;42.636;23.198;2023-05-21T02:30:10;91806.81;;;11.01;100.00
37206;BME280;23099;42.636;23.198;2023-05-21T02:32:38;91818.25;;;11.01;100.00
37206;BME280;23099;42.636;23.198;2023-05-21T02:35:08;91807.16;;;10.99;100.00
37206;BME280;23099;42.636;23.198;2023-05-21T02:37:35;91813.31;;;11.03;100.00
37206;BME280;23099;42.636;23.198;2023-05-21T02:40:03;91814.81;;;11.01;100.00
37206;BME280;23099;42.636;23.198;2023-05-21T02:42:31;91812.09;;;10.97;100.00
37206;BME280;23099;42.636;23.198;2023-05-21T02:44:58;91801.72;;;10.88;100.00
37206;BME280;23099;42.636;23.198;2023-05-21T02:47:25;91807.44;;;10.87;100.00
37206;BME280;23099;42.636;23.198;2023-05-21T02:49:53;91798.28;;;10.88;100.00
37206;BME280;23099;42.636;23.198;2023-05-21T02:52:20;91802.88;;;10.91;100.00
37206;BME280;23099;42.636;23.198;2023-05-21T02:54:48;91801.38;;;10.93;100.00
37206;BME280;23099;42.636;23.198;2023-05-21T02:57:15;91809.47;;;11.01;100.00
37206;BME280;23099;42.636;23.198;2023-05-21T02:59:42;91804.38;;;10.88;100.00
37206;BME280;23099;42.636;23.198;2023-05-21T03:02:09;91804.44;;;10.92;100.00
37206;BME280;23099;42.636;23.198;2023-05-21T03:04:36;91803.31;;;10.96;100.00
37206;BME280;23099;42.636;23.198;2023-05-21T03:07:05;91799.00;;;10.85;100.00
37206;BME280;23099;42.636;23.198;2023-05-21T03:09:34;91807.44;;;10.87;100.00
37206;BME280;23099;42.636;23.198;2023-05-21T03:12:01;91808.56;;;10.86;100.00
37206;BME280;23099;42.636;23.198;2023-05-21T03:14:27;91812.34;;;10.81;100.00
37206;BME280;23099;42.636;23.198;2023-05-21T03:16:54;91813.84;;;10.79;100.00
37206;BME280;23099;42.636;23.198;2023-05-21T03:19:20;91811.16;;;10.79;100.00
37206;BME280;23099;42.636;23.198;2023-05-21T03:21:49;91814.25;;;10.81;100.00
37206;BME280;23099;42.636;23.198;2023-05-21T03:24:17;91819.63;;;10.84;100.00
37206;BME280;23099;42.636;23.198;2023-05-21T03:26:43;91810.88;;;10.87;100.00
37206;BME280;23099;42.636;23.198;2023-05-21T03:29:12;91812.00;;;10.86;100.00
37206;BME280;23099;42.636;23.198;2023-05-21T03:31:38;91815.50;;;10.90;100.00
37206;BME280;23099;42.636;23.198;2023-05-21T03:34:05;91817.06;;;10.95;100.00
37206;BME280;23099;42.636;23.198;2023-05-21T03:36:32;91813.66;;;10.98;100.00
37206;BME280;23099;42.636;23.198;2023-05-21T03:38:59;91806.38;;;10.98;100.00
37206;BME280;23099;42.636;23.198;2023-05-21T03:41:27;91816.38;;;11.02;100.00
37206;BME280;23099;42.636;23.198;2023-05-21T03:43:54;91811.81;;;11.06;100.00
37206;BME280;23099;42.636;23.198;2023-05-21T03:46:20;91809.88;;;11.03;100.00
37206;BME280;23099;42.636;23.198;2023-05-21T03:48:48;91807.31;;;11.13;100.00
37206;BME280;23099;42.636;23.198;2023-05-21T03:51:14;91802.81;;;11.21;100.00
37206;BME280;23099;42.636;23.198;2023-05-21T03:53:42;91810.09;;;11.24;100.00
37206;BME280;23099;42.636;23.198;2023-05-21T03:56:08;91810.16;;;11.31;100.00
37206;BME280;23099;42.636;23.198;2023-05-21T03:58:36;91802.88;;;11.31;100.00
37206;BME280;23099;42.636;23.198;2023-05-21T04:01:03;91805.66;;;11.42;100.00
37206;BME280;23099;42.636;23.198;2023-05-21T04:03:30;91806.00;;;11.37;100.00
37206;BME280;23099;42.636;23.198;2023-05-21T04:05:59;91807.94;;;11.40;100.00
37206;BME280;23099;42.636;23.198;2023-05-21T04:08:26;91806.78;;;11.38;100.00
37206;BME280;23099;42.636;23.198;2023-05-21T04:10:53;91796.03;;;11.34;100.00
37206;BME280;23099;42.636;23.198;2023-05-21T04:13:19;91801.38;;;11.34;100.00
37206;BME280;23099;42.636;23.198;2023-05-21T04:15:48;91793.75;;;11.36;100.00
37206;BME280;23099;42.636;23.198;2023-05-21T04:18:15;91803.66;;;11.32;100.00
37206;BME280;23099;42.636;23.198;2023-05-21T04:20:41;91806.34;;;11.32;100.00
37206;BME280;23099;42.636;23.198;2023-05-21T04:23:08;91802.88;;;11.31;100.00
37206;BME280;23099;42.636;23.198;2023-05-21T04:25:35;91802.56;;;11.40;100.00
37206;BME280;23099;42.636;23.198;2023-05-21T04:28:03;91802.56;;;11.37;100.00
37206;BME280;23099;42.636;23.198;2023-05-21T04:30:30;91788.78;;;11.34;100.00
37206;BME280;23099;42.636;23.198;2023-05-21T04:33:01;91789.97;;;11.41;100.00
37206;BME280;23099;42.636;23.198;2023-05-21T04:35:28;91788.81;;;11.42;100.00
37206;BME280;23099;42.636;23.198;2023-05-21T04:37:55;91797.22;;;11.37;100.00
37206;BME280;23099;42.636;23.198;2023-05-21T04:40:22;91795.66;;;11.36;100.00
37206;BME280;23099;42.636;23.198;2023-05-21T04:42:49;91789.59;;;11.39;100.00
37206;BME280;23099;42.636;23.198;2023-05-21T04:45:16;91792.25;;;11.39;100.00
37206;BME280;23099;42.636;23.198;2023-05-21T04:47:43;91786.16;;;11.38;100.00
37206;BME280;23099;42.636;23.198;2023-05-21T04:50:11;91789.91;;;11.33;100.00
37206;BME280;23099;42.636;23.198;2023-05-21T04:52:38;91788.81;;;11.38;100.00
37206;BME280;23099;42.636;23.198;2023-05-21T04:55:06;91791.84;;;11.37;100.00
37206;BME280;23099;42.636;23.198;2023-05-21T04:57:33;91794.16;;;11.38;100.00
37206;BME280;23099;42.636;23.198;2023-05-21T05:00:00;91789.09;;;11.29;100.00
37206;BME280;23099;42.636;23.198;2023-05-21T05:02:28;91798.75;;;11.41;100.00
37206;BME280;23099;42.636;23.198;2023-05-21T05:04:54;91791.16;;;11.47;100.00
37206;BME280;23099;42.636;23.198;2023-05-21T05:07:22;91793.16;;;11.57;100.00
37206;BME280;23099;42.636;23.198;2023-05-21T05:09:49;91796.28;;;11.62;100.00
37206;BME280;23099;42.636;23.198;2023-05-21T05:12:16;91798.59;;;11.67;100.00
37206;BME280;23099;42.636;23.198;2023-05-21T05:14:42;91802.56;;;11.81;100.00
37206;BME280;23099;42.636;23.198;2023-05-21T05:17:09;91800.25;;;11.79;100.00
37206;BME280;23099;42.636;23.198;2023-05-21T05:19:39;91800.66;;;11.85;100.00
37206;BME280;23099;42.636;23.198;2023-05-21T05:22:06;91795.28;;;11.85;100.00
37206;BME280;23099;42.636;23.198;2023-05-21T05:24:34;91801.44;;;11.89;100.00
37206;BME280;23099;42.636;23.198;2023-05-21T05:27:01;91810.31;;;11.96;100.00
37206;BME280;23099;42.636;23.198;2023-05-21T05:29:27;91802.69;;;12.02;100.00
37206;BME280;23099;42.636;23.198;2023-05-21T05:31:54;91801.22;;;12.12;100.00
37206;BME280;23099;42.636;23.198;2023-05-21T05:34:21;91790.13;;;12.17;100.00
37206;BME280;23099;42.636;23.198;2023-05-21T05:36:47;91795.56;;;12.31;100.00
37206;BME280;23099;42.636;23.198;2023-05-21T05:39:14;91800.56;;;12.32;100.00
37206;BME280;23099;42.636;23.198;2023-05-21T05:41:42;91803.66;;;12.42;100.00
37206;BME280;23099;42.636;23.198;2023-05-21T05:44:09;91807.88;;;12.43;100.00
37206;BME280;23099;42.636;23.198;2023-05-21T05:46:35;91795.31;;;12.54;100.00
37206;BME280;23099;42.636;23.198;2023-05-21T05:49:02;91791.09;;;12.60;100.00
37206;BME280;23099;42.636;23.198;2023-05-21T05:51:29;91801.09;;;12.66;100.00
37206;BME280;23099;42.636;23.198;2023-05-21T05:53:55;91793.09;;;12.77;100.00
37206;BME280;23099;42.636;23.198;2023-05-21T05:56:22;91794.63;;;12.85;100.00
37206;BME280;23099;42.636;23.198;2023-05-21T05:58:50;91786.25;;;12.97;100.00
37206;BME280;23099;42.636;23.198;2023-05-21T06:01:17;91790.09;;;13.07;100.00
37206;BME280;23099;42.636;23.198;2023-05-21T06:03:44;91765.59;;;13.12;100.00
37206;BME280;23099;42.636;23.198;2023-05-21T06:06:11;91767.91;;;13.28;98.59
37206;BME280;23099;42.636;23.198;2023-05-21T06:08:38;91792.09;;;13.56;96.43
37206;BME280;23099;42.636;23.198;2023-05-21T06:11:04;91779.06;;;13.65;94.14
37206;BME280;23099;42.636;23.198;2023-05-21T06:13:31;91784.81;;;13.85;94.08
37206;BME280;23099;42.636;23.198;2023-05-21T06:15:59;91783.28;;;13.98;92.92
37206;BME280;23099;42.636;23.198;2023-05-21T06:18:26;91778.66;;;14.09;90.11
37206;BME280;23099;42.636;23.198;2023-05-21T06:20:53;91770.19;;;14.25;88.84
37206;BME280;23099;42.636;23.198;2023-05-21T06:23:19;91772.84;;;14.29;86.47
37206;BME280;23099;42.636;23.198;2023-05-21T06:25:46;91763.25;;;14.42;87.33
37206;BME280;23099;42.636;23.198;2023-05-21T06:28:13;91765.13;;;14.56;86.03
37206;BME280;23099;42.636;23.198;2023-05-21T06:30:40;91757.75;;;14.67;84.67
37206;BME280;23099;42.636;23.198;2023-05-21T06:33:08;91748.50;;;14.75;83.25
37206;BME280;23099;42.636;23.198;2023-05-21T06:35:35;91748.47;;;14.78;82.43
37206;BME280;23099;42.636;23.198;2023-05-21T06:38:04;91753.81;;;14.89;82.68
37206;BME280;23099;42.636;23.198;2023-05-21T06:40:30;91752.97;;;15.03;82.05
37206;BME280;23099;42.636;23.198;2023-05-21T06:42:57;91748.31;;;15.10;82.59
37206;BME280;23099;42.636;23.198;2023-05-21T06:45:24;91747.09;;;15.22;84.05
37206;BME280;23099;42.636;23.198;2023-05-21T06:47:50;91744.28;;;15.40;81.90
37206;BME280;23099;42.636;23.198;2023-05-21T06:50:19;91749.56;;;15.50;79.63
37206;BME280;23099;42.636;23.198;2023-05-21T06:52:45;91757.63;;;15.54;77.10
37206;BME280;23099;42.636;23.198;2023-05-21T06:55:12;91766.38;;;15.72;79.12
37206;BME280;23099;42.636;23.198;2023-05-21T06:57:38;91766.28;;;15.83;76.49
37206;BME280;23099;42.636;23.198;2023-05-21T07:00:06;91755.81;;;15.92;75.85
37206;BME280;23099;42.636;23.198;2023-05-21T07:02:34;91758.84;;;15.98;75.74
37206;BME280;23099;42.636;23.198;2023-05-21T07:05:01;91757.16;;;16.14;75.83
37206;BME280;23099;42.636;23.198;2023-05-21T07:07:29;91747.41;;;16.24;75.68
37206;BME280;23099;42.636;23.198;2023-05-21T07:09:56;91762.13;;;16.53;78.16
37206;BME280;23099;42.636;23.198;2023-05-21T07:12:22;91773.22;;;16.63;74.86
37206;BME280;23099;42.636;23.198;2023-05-21T07:14:49;91761.56;;;16.73;73.71
37206;BME280;23099;42.636;23.198;2023-05-21T07:17:16;91771.44;;;16.83;71.22
37206;BME280;23099;42.636;23.198;2023-05-21T07:19:42;91778.56;;;17.00;74.58
37206;BME280;23099;42.636;23.198;2023-05-21T07:22:09;91774.91;;;17.14;75.10
37206;BME280;23099;42.636;23.198;2023-05-21T07:24:38;91779.63;;;17.06;71.80
37206;BME280;23099;42.636;23.198;2023-05-21T07:27:05;91771.63;;;16.99;69.74
37206;BME280;23099;42.636;23.198;2023-05-21T07:29:32;91777.88;;;16.92;70.72
37206;BME280;23099;42.636;23.198;2023-05-21T07:31:59;91779.75;;;16.99;69.17
37206;BME280;23099;42.636;23.198;2023-05-21T07:34:25;91777.75;;;17.03;70.15
37206;BME280;23099;42.636;23.198;2023-05-21T07:36:52;91767.22;;;17.12;68.97
37206;BME280;23099;42.636;23.198;2023-05-21T07:39:19;91785.94;;;17.26;67.68
37206;BME280;23099;42.636;23.198;2023-05-21T07:41:47;91781.66;;;17.29;68.11
37206;BME280;23099;42.636;23.198;2023-05-21T07:44:13;91770.78;;;17.32;68.61
37206;BME280;23099;42.636;23.198;2023-05-21T07:46:40;91769.00;;;17.49;69.26
37206;BME280;23099;42.636;23.198;2023-05-21T07:49:07;91768.03;;;17.63;67.14
37206;BME280;23099;42.636;23.198;2023-05-21T07:51:35;91766.31;;;17.76;66.25
37206;BME280;23099;42.636;23.198;2023-05-21T07:54:01;91762.69;;;17.86;63.17
37206;BME280;23099;42.636;23.198;2023-05-21T07:56:28;91773.19;;;18.04;62.96
37206;BME280;23099;42.636;23.198;2023-05-21T07:58:57;91771.81;;;17.96;63.15
37206;BME280;23099;42.636;23.198;2023-05-21T08:01:26;91775.09;;;18.07;64.18
37206;BME280;23099;42.636;23.198;2023-05-21T08:03:53;91777.31;;;18.35;62.30
37206;BME280;23099;42.636;23.198;2023-05-21T08:06:20;91767.28;;;18.56;61.91
37206;BME280;23099;42.636;23.198;2023-05-21T08:08:48;91777.56;;;18.64;60.99
37206;BME280;23099;42.636;23.198;2023-05-21T08:11:15;91781.59;;;18.76;59.75
37206;BME280;23099;42.636;23.198;2023-05-21T08:13:42;91758.28;;;18.82;56.34
37206;BME280;23099;42.636;23.198;2023-05-21T08:16:10;91773.84;;;18.98;57.80
37206;BME280;23099;42.636;23.198;2023-05-21T08:18:36;91771.47;;;19.00;55.54
37206;BME280;23099;42.636;23.198;2023-05-21T08:21:03;91782.16;;;19.07;55.16
37206;BME280;23099;42.636;23.198;2023-05-21T08:23:30;91778.63;;;19.10;56.36
37206;BME280;23099;42.636;23.198;2023-05-21T08:25:56;91770.19;;;19.24;56.61
37206;BME280;23099;42.636;23.198;2023-05-21T08:28:23;91779.00;;;19.28;59.41
37206;BME280;23099;42.636;23.198;2023-05-21T08:30:51;91784.09;;;19.26;54.95
37206;BME280;23099;42.636;23.198;2023-05-21T08:33:19;91774.91;;;19.20;51.36
37206;BME280;23099;42.636;23.198;2023-05-21T08:35:46;91787.78;;;18.96;53.67
37206;BME280;23099;42.636;23.198;2023-05-21T08:38:12;91785.09;;;18.96;54.61
37206;BME280;23099;42.636;23.198;2023-05-21T08:40:41;91803.06;;;19.26;53.24
37206;BME280;23099;42.636;23.198;2023-05-21T08:43:07;91793.31;;;19.29;54.01
37206;BME280;23099;42.636;23.198;2023-05-21T08:45:40;91796.28;;;19.18;50.14
37206;BME280;23099;42.636;23.198;2023-05-21T08:48:09;91792.63;;;19.25;50.02
37206;BME280;23099;42.636;23.198;2023-05-21T08:50:37;91797.03;;;19.19;49.99
37206;BME280;23099;42.636;23.198;2023-05-21T08:53:04;91796.63;;;19.36;49.26
37206;BME280;23099;42.636;23.198;2023-05-21T08:55:31;91781.97;;;19.34;48.15
37206;BME280;23099;42.636;23.198;2023-05-21T08:58:00;91793.66;;;19.51;47.53
37206;BME280;23099;42.636;23.198;2023-05-21T09:00:29;91791.63;;;19.35;46.12
37206;BME280;23099;42.636;23.198;2023-05-21T09:02:58;91793.94;;;19.36;50.38
37206;BME280;23099;42.636;23.198;2023-05-21T09:05:26;91798.75;;;19.65;48.70
37206;BME280;23099;42.636;23.198;2023-05-21T09:07:58;91802.84;;;19.73;51.87
37206;BME280;23099;42.636;23.198;2023-05-21T09:10:34;91805.91;;;19.75;48.07
37206;BME280;23099;42.636;23.198;2023-05-21T09:13:02;91790.88;;;19.54;49.60
37206;BME280;23099;42.636;23.198;2023-05-21T09:15:29;91811.44;;;19.52;49.90
37206;BME280;23099;42.636;23.198;2023-05-21T09:17:56;91799.63;;;19.42;52.28
37206;BME280;23099;42.636;23.198;2023-05-21T09:20:23;91802.28;;;19.26;50.59
37206;BME280;23099;42.636;23.198;2023-05-21T09:22:51;91807.09;;;18.98;53.46
37206;BME280;23099;42.636;23.198;2023-05-21T09:25:22;91807.34;;;19.24;53.99
37206;BME280;23099;42.636;23.198;2023-05-21T09:27:52;91788.81;;;19.22;50.92
37206;BME280;23099;42.636;23.198;2023-05-21T09:30:19;91805.34;;;19.28;50.92
37206;BME280;23099;42.636;23.198;2023-05-21T09:32:51;91801.22;;;19.03;54.48
37206;BME280;23099;42.636;23.198;2023-05-21T09:35:18;91794.53;;;18.88;52.96
37206;BME280;23099;42.636;23.198;2023-05-21T09:37:47;91798.00;;;18.89;55.29
37206;BME280;23099;42.636;23.198;2023-05-21T09:40:15;91790.38;;;19.03;50.20
37206;BME280;23099;42.636;23.198;2023-05-21T09:42:45;91782.44;;;19.13;48.58
37206;BME280;23099;42.636;23.198;2023-05-21T09:45:17;91789.16;;;19.24;52.57
37206;BME280;23099;42.636;23.198;2023-05-21T09:47:44;91791.38;;;19.29;48.25
37206;BME280;23099;42.636;23.198;2023-05-21T09:50:12;91783.50;;;19.35;45.72
37206;BME280;23099;42.636;23.198;2023-05-21T09:52:39;91793.28;;;19.49;46.91
37206;BME280;23099;42.636;23.198;2023-05-21T09:55:07;91792.31;;;19.59;42.97
37206;BME280;23099;42.636;23.198;2023-05-21T09:57:39;91784.03;;;19.66;40.86
37206;BME280;23099;42.636;23.198;2023-05-21T10:00:16;91757.56;;;19.54;42.84
37206;BME280;23099;42.636;23.198;2023-05-21T10:02:44;91786.84;;;19.42;41.71
37206;BME280;23099;42.636;23.198;2023-05-21T10:05:13;91772.19;;;19.40;43.06
37206;BME280;23099;42.636;23.198;2023-05-21T10:07:41;91795.47;;;19.57;44.79
37206;BME280;23099;42.636;23.198;2023-05-21T10:10:12;91803.25;;;19.35;42.56
37206;BME280;23099;42.636;23.198;2023-05-21T10:12:40;91790.09;;;19.34;41.49
37206;BME280;23099;42.636;23.198;2023-05-21T10:15:13;91780.78;;;19.35;42.61
37206;BME280;23099;42.636;23.198;2023-05-21T10:17:41;91790.19;;;19.30;44.55
37206;BME280;23099;42.636;23.198;2023-05-21T10:20:10;91761.66;;;19.26;43.84
37206;BME280;23099;42.636;23.198;2023-05-21T10:22:37;91788.66;;;19.49;44.22
37206;BME280;23099;42.636;23.198;2023-05-21T10:25:06;91786.91;;;19.59;41.78
37206;BME280;23099;42.636;23.198;2023-05-21T10:27:33;91791.44;;;19.98;42.87
37206;BME280;23099;42.636;23.198;2023-05-21T10:30:01;91765.56;;;20.42;43.91
37206;BME280;23099;42.636;23.198;2023-05-21T10:32:29;91775.13;;;20.30;43.09
37206;BME280;23099;42.636;23.198;2023-05-21T10:34:57;91774.38;;;20.13;38.56
37206;BME280;23099;42.636;23.198;2023-05-21T10:37:24;91765.41;;;19.84;41.32
37206;BME280;23099;42.636;23.198;2023-05-21T10:39:52;91786.41;;;19.80;42.46
37206;BME280;23099;42.636;23.198;2023-05-21T10:42:23;91791.81;;;19.64;40.08
37206;BME280;23099;42.636;23.198;2023-05-21T10:45:04;91776.41;;;19.61;41.67
37206;BME280;23099;42.636;23.198;2023-05-21T10:50:59;91787.81;;;19.52;45.85
37206;BME280;23099;42.636;23.198;2023-05-21T10:53:31;91780.66;;;19.42;43.59
37206;BME280;23099;42.636;23.198;2023-05-21T10:56:11;91779.28;;;19.34;43.25
37206;BME280;23099;42.636;23.198;2023-05-21T10:58:58;91763.72;;;19.90;46.74
37206;BME280;23099;42.636;23.198;2023-05-21T11:01:33;91768.63;;;20.44;40.55
37206;BME280;23099;42.636;23.198;2023-05-21T11:04:02;91764.78;;;20.41;42.01
37206;BME280;23099;42.636;23.198;2023-05-21T11:06:30;91772.59;;;20.39;43.47
37206;BME280;23099;42.636;23.198;2023-05-21T11:08:59;91769.53;;;20.21;43.71
37206;BME280;23099;42.636;23.198;2023-05-21T11:11:39;91778.44;;;20.05;41.30
37206;BME280;23099;42.636;23.198;2023-05-21T11:14:26;91784.31;;;20.04;46.71
37206;BME280;23099;42.636;23.198;2023-05-21T11:16:52;91772.19;;;19.92;44.49
37206;BME280;23099;42.636;23.198;2023-05-21T11:19:19;91773.63;;;19.81;46.60
37206;BME280;23099;42.636;23.198;2023-05-21T11:21:50;91767.34;;;19.67;48.39
37206;BME280;23099;42.636;23.198;2023-05-21T11:24:18;91772.75;;;19.67;47.68
37206;BME280;23099;42.636;23.198;2023-05-21T11:27:03;91780.88;;;19.51;45.73
37206;BME280;23099;42.636;23.198;2023-05-21T11:29:35;91772.81;;;19.48;49.31
37206;BME280;23099;42.636;23.198;2023-05-21T11:32:05;91769.06;;;19.41;48.59
37206;BME280;23099;42.636;23.198;2023-05-21T11:34:37;91760.66;;;19.36;46.36
37206;BME280;23099;42.636;23.198;2023-05-21T11:37:34;91757.44;;;19.61;45.52
37206;BME280;23099;42.636;23.198;2023-05-21T11:40:19;91750.72;;;20.14;46.02
37206;BME280;23099;42.636;23.198;2023-05-21T11:42:49;91749.72;;;20.08;45.60
37206;BME280;23099;42.636;23.198;2023-05-21T11:45:17;91762.78;;;19.97;46.26
37206;BME280;23099;42.636;23.198;2023-05-21T11:47:45;91753.94;;;19.76;46.38
37206;BME280;23099;42.636;23.198;2023-05-21T11:50:12;91744.38;;;19.72;47.44
37206;BME280;23099;42.636;23.198;2023-05-21T11:52:41;91754.38;;;19.59;46.48
37206;BME280;23099;42.636;23.198;2023-05-21T11:55:09;91739.94;;;19.46;46.58
37206;BME280;23099;42.636;23.198;2023-05-21T11:57:36;91751.69;;;19.39;46.02
37206;BME280;23099;42.636;23.198;2023-05-21T12:00:12;91751.56;;;19.26;49.12
37206;BME280;23099;42.636;23.198;2023-05-21T12:02:44;91751.47;;;19.14;48.39
37206;BME280;23099;42.636;23.198;2023-05-21T12:05:11;91753.13;;;19.07;50.66
37206;BME280;23099;42.636;23.198;2023-05-21T12:07:37;91743.97;;;19.01;49.54
37206;BME280;23099;42.636;23.198;2023-05-21T12:10:07;91743.34;;;18.94;51.59
37206;BME280;23099;42.636;23.198;2023-05-21T12:12:34;91750.03;;;18.89;54.73
37206;BME280;23099;42.636;23.198;2023-05-21T12:15:01;91744.56;;;18.73;50.78
37206;BME280;23099;42.636;23.198;2023-05-21T12:17:29;91738.91;;;18.64;50.08
37206;BME280;23099;42.636;23.198;2023-05-21T12:19:57;91739.81;;;18.57;52.50
37206;BME280;23099;42.636;23.198;2023-05-21T12:22:26;91748.38;;;18.52;53.30
37206;BME280;23099;42.636;23.198;2023-05-21T12:24:54;91735.13;;;18.38;53.68
37206;BME280;23099;42.636;23.198;2023-05-21T12:27:23;91742.84;;;18.40;55.53
37206;BME280;23099;42.636;23.198;2023-05-21T12:29:52;91747.63;;;18.32;57.55
37206;BME280;23099;42.636;23.198;2023-05-21T12:32:20;91743.84;;;18.26;57.83
37206;BME280;23099;42.636;23.198;2023-05-21T12:34:47;91731.97;;;18.20;59.72
37206;BME280;23099;42.636;23.198;2023-05-21T12:37:15;91738.56;;;18.19;56.76
37206;BME280;23099;42.636;23.198;2023-05-21T12:39:43;91736.22;;;18.21;58.63
37206;BME280;23099;42.636;23.198;2023-05-21T12:42:10;91738.84;;;18.24;58.74
37206;BME280;23099;42.636;23.198;2023-05-21T12:44:40;91735.28;;;18.31;56.69
37206;BME280;23099;42.636;23.198;2023-05-21T12:47:09;91730.88;;;18.37;58.53
37206;BME280;23099;42.636;23.198;2023-05-21T12:49:38;91729.16;;;18.47;58.29
37206;BME280;23099;42.636;23.198;2023-05-21T12:52:08;91720.97;;;18.50;57.18
37206;BME280;23099;42.636;23.198;2023-05-21T12:54:36;91732.38;;;18.61;57.21